Terminal Aerodrome Forecast
Issued by NWS Shreveport, LA

Home | Current Version | Previous Version | Text Only | Print | Product List | Glossary On
Versions: 1 2 3 4 5 6 7 8 9 10 11 12
000
FTUS44 KSHV 112300
TAFTYR
TAF
KTYR 112320Z 1200/1224 VRB04KT P6SM SKC
     FM121400 22006KT P6SM SKC
     FM121800 23006KT P6SM SCT050=

USA.gov is the U.S. government's official web portal to all federal, state and local government web resources and services.